createdAt,value
2022-12-06T00:02:00.248Z,100.00
2022-12-06T00:04:30.582Z,100.00
2022-12-06T00:07:00.796Z,100.00
2022-12-06T00:09:33.615Z,100.00
2022-12-06T00:12:03.551Z,100.00
2022-12-06T00:14:33.461Z,100.00
2022-12-06T00:17:03.384Z,100.00
2022-12-06T00:19:33.383Z,100.00
2022-12-06T00:22:03.792Z,99.96
2022-12-06T00:24:37.321Z,100.00
2022-12-06T00:27:07.526Z,99.32
2022-12-06T00:29:37.997Z,100.00
2022-12-06T00:32:07.881Z,96.94
2022-12-06T00:34:38.581Z,97.52
2022-12-06T00:37:07.979Z,95.85
2022-12-06T00:39:39.453Z,96.79
2022-12-06T00:42:09.540Z,97.56
2022-12-06T00:44:39.972Z,99.95
2022-12-06T00:47:10.526Z,96.08
2022-12-06T00:49:40.269Z,95.77
2022-12-06T00:52:10.060Z,97.29
2022-12-06T00:54:45.599Z,96.01
2022-12-06T00:57:15.273Z,96.66
2022-12-06T00:59:45.426Z,99.06
2022-12-06T01:02:15.627Z,97.36
2022-12-06T01:04:46.437Z,94.62
2022-12-06T01:07:16.423Z,99.67
2022-12-06T01:09:48.287Z,97.57
2022-12-06T01:12:18.080Z,97.20
2022-12-06T01:14:48.280Z,96.36
2022-12-06T01:17:18.661Z,98.42
2022-12-06T01:19:48.826Z,97.26
2022-12-06T01:22:19.428Z,97.39
2022-12-06T01:24:51.408Z,97.29
2022-12-06T01:27:21.594Z,95.04
2022-12-06T01:29:51.459Z,92.26
2022-12-06T01:32:21.421Z,98.90
2022-12-06T01:34:53.178Z,97.52
2022-12-06T01:37:23.271Z,95.87
2022-12-06T01:39:54.540Z,93.84
2022-12-06T01:42:24.424Z,93.62
2022-12-06T01:44:55.826Z,92.55
2022-12-06T01:47:28.101Z,94.05
2022-12-06T01:50:01.224Z,93.70
2022-12-06T01:52:33.374Z,94.18
2022-12-06T01:55:05.820Z,94.50
2022-12-06T01:57:35.692Z,93.89
2022-12-06T02:00:08.195Z,92.53
2022-12-06T02:02:38.554Z,93.41
2022-12-06T02:05:10.506Z,93.36
2022-12-06T02:07:41.284Z,95.64
2022-12-06T02:10:14.443Z,92.80
2022-12-06T02:12:44.564Z,94.43
2022-12-06T02:15:16.720Z,96.76
2022-12-06T02:17:50.109Z,95.95
2022-12-06T02:20:27.638Z,93.29
2022-12-06T02:23:42.070Z,94.21
2022-12-06T02:26:28.875Z,94.61
2022-12-06T02:29:40.671Z,95.58
2022-12-06T02:32:16.241Z,94.05
2022-12-06T02:34:48.543Z,92.03
2022-12-06T02:37:22.509Z,92.75
2022-12-06T02:39:57.660Z,92.65
2022-12-06T02:42:30.118Z,91.83
2022-12-06T02:45:03.898Z,93.80
2022-12-06T02:47:38.218Z,95.02
2022-12-06T02:50:12.198Z,93.60
2022-12-06T02:52:44.399Z,89.78
2022-12-06T02:55:15.842Z,91.81
2022-12-06T02:57:47.098Z,91.57
2022-12-06T03:00:39.509Z,90.68
2022-12-06T03:03:35.967Z,89.83
2022-12-06T03:06:26.115Z,92.25
2022-12-06T03:09:03.702Z,93.62
2022-12-06T03:11:41.008Z,91.68
2022-12-06T03:14:15.655Z,93.33
2022-12-06T03:16:49.471Z,90.12
2022-12-06T03:19:22.739Z,93.12
2022-12-06T03:21:54.984Z,95.09
2022-12-06T03:24:25.765Z,90.33
2022-12-06T03:26:57.620Z,93.72
2022-12-06T03:29:30.716Z,90.77
2022-12-06T03:32:02.735Z,92.11
2022-12-06T03:34:36.935Z,90.43
2022-12-06T03:37:07.446Z,93.10
2022-12-06T03:39:40.703Z,92.16
2022-12-06T03:42:14.225Z,90.35
2022-12-06T03:44:44.283Z,96.40
2022-12-06T03:47:17.839Z,94.74
2022-12-06T03:49:52.858Z,96.08
2022-12-06T03:52:24.417Z,95.42
2022-12-06T03:54:54.280Z,93.92
2022-12-06T03:57:24.021Z,90.86
2022-12-06T03:59:53.893Z,90.63
2022-12-06T04:02:23.654Z,93.30
2022-12-06T04:04:54.785Z,95.41
2022-12-06T04:07:24.307Z,91.99
2022-12-06T04:09:56.697Z,92.33
2022-12-06T04:12:44.439Z,95.30
2022-12-06T04:15:15.147Z,92.22
2022-12-06T04:18:02.810Z,90.73
2022-12-06T04:20:55.319Z,92.77
2022-12-06T04:23:24.296Z,92.00
2022-12-06T04:25:56.176Z,94.46
2022-12-06T04:28:43.799Z,94.58
2022-12-06T04:31:30.699Z,92.90
2022-12-06T04:34:17.803Z,92.61
2022-12-06T04:37:06.500Z,90.55
2022-12-06T04:39:36.443Z,91.39
2022-12-06T04:42:24.121Z,92.42
2022-12-06T04:44:54.047Z,91.70
2022-12-06T04:47:23.939Z,94.50
2022-12-06T04:49:53.689Z,93.15
2022-12-06T04:52:25.704Z,94.50
2022-12-06T04:54:55.458Z,92.15
2022-12-06T04:57:25.238Z,93.14
2022-12-06T04:59:54.840Z,92.45
2022-12-06T05:02:24.997Z,96.63
2022-12-06T05:04:54.869Z,98.73
2022-12-06T05:07:26.052Z,97.64
2022-12-06T05:09:55.836Z,95.89
2022-12-06T05:12:25.941Z,92.96
2022-12-06T05:14:55.796Z,93.35
2022-12-06T05:17:27.062Z,95.38
2022-12-06T05:19:57.458Z,94.04
2022-12-06T05:22:33.938Z,94.34
2022-12-06T05:25:03.869Z,95.39
2022-12-06T05:27:36.177Z,94.55
2022-12-06T05:30:07.917Z,94.92
2022-12-06T05:32:39.414Z,96.02
2022-12-06T05:35:10.953Z,94.80
2022-12-06T05:37:42.288Z,94.60
2022-12-06T05:40:13.363Z,94.43
2022-12-06T05:42:43.875Z,93.79
2022-12-06T05:45:14.408Z,95.97
2022-12-06T05:47:44.878Z,94.20
2022-12-06T05:50:15.015Z,94.73
2022-12-06T05:52:46.479Z,98.59
2022-12-06T05:55:16.211Z,100.00
2022-12-06T05:57:47.445Z,99.97
2022-12-06T06:00:19.439Z,94.61
2022-12-06T06:02:50.172Z,93.06
2022-12-06T06:05:20.646Z,92.77
2022-12-06T06:07:52.013Z,93.51
2022-12-06T06:10:22.395Z,93.23
2022-12-06T06:12:52.195Z,93.67
2022-12-06T06:15:22.329Z,94.36
2022-12-06T06:17:52.656Z,95.42
2022-12-06T06:20:23.231Z,98.29
2022-12-06T06:22:57.683Z,100.00
2022-12-06T06:25:33.148Z,100.00
2022-12-06T06:28:04.627Z,100.00
2022-12-06T06:30:34.697Z,99.98
2022-12-06T06:33:04.874Z,99.48
2022-12-06T06:35:34.894Z,96.35
2022-12-06T06:38:06.068Z,96.40
2022-12-06T06:40:37.693Z,96.63
2022-12-06T06:43:20.445Z,96.44
2022-12-06T06:45:54.995Z,93.91
2022-12-06T06:48:26.348Z,95.08
2022-12-06T06:50:57.963Z,92.71
2022-12-06T06:53:30.163Z,93.23
2022-12-06T06:56:00.637Z,93.70
2022-12-06T06:58:30.579Z,97.10
2022-12-06T07:01:02.153Z,98.43
2022-12-06T07:03:32.849Z,95.53
2022-12-06T07:06:04.478Z,96.87
2022-12-06T07:08:37.493Z,94.22
2022-12-06T07:11:08.151Z,90.83
2022-12-06T07:13:39.586Z,95.99
2022-12-06T07:16:13.607Z,97.45
2022-12-06T07:18:43.544Z,92.99
2022-12-06T07:21:16.380Z,94.18
2022-12-06T07:23:48.342Z,92.99
2022-12-06T07:26:20.243Z,95.30
2022-12-06T07:28:51.317Z,95.88
2022-12-06T07:31:24.185Z,94.98
2022-12-06T07:33:55.564Z,99.57
2022-12-06T07:36:26.573Z,98.11
2022-12-06T07:38:59.394Z,95.37
2022-12-06T07:41:47.958Z,95.32
2022-12-06T07:44:35.825Z,100.00
2022-12-06T07:47:06.100Z,100.00
2022-12-06T07:49:35.760Z,98.60
2022-12-06T07:52:05.760Z,97.96
2022-12-06T07:54:38.045Z,100.00
2022-12-06T07:57:09.674Z,100.00
2022-12-06T07:59:39.364Z,100.00
2022-12-06T08:02:11.268Z,100.00
2022-12-06T08:04:40.965Z,100.00
2022-12-06T08:07:10.828Z,99.52
2022-12-06T08:09:42.538Z,100.00
2022-12-06T08:12:12.587Z,100.00
2022-12-06T08:14:42.391Z,97.17
2022-12-06T08:17:12.306Z,100.00
2022-12-06T08:19:41.747Z,97.26
2022-12-06T08:22:13.022Z,100.00
2022-12-06T08:24:46.532Z,99.66
2022-12-06T08:27:16.437Z,97.15
2022-12-06T08:29:46.545Z,97.45
2022-12-06T08:32:16.131Z,100.00
2022-12-06T08:34:45.811Z,98.72
2022-12-06T08:37:15.839Z,100.00
2022-12-06T08:39:47.205Z,100.00
2022-12-06T08:42:22.072Z,100.00
2022-12-06T08:44:55.463Z,100.00
2022-12-06T08:47:25.603Z,98.58
2022-12-06T08:49:55.262Z,98.86
2022-12-06T08:52:24.922Z,98.12
2022-12-06T08:54:57.052Z,100.00
2022-12-06T08:57:26.903Z,100.00
2022-12-06T08:59:56.567Z,100.00
2022-12-06T09:02:26.141Z,99.84
2022-12-06T09:04:57.660Z,100.00
2022-12-06T09:07:27.629Z,100.00
2022-12-06T09:09:59.545Z,99.35
2022-12-06T09:12:29.775Z,97.64
2022-12-06T09:14:59.584Z,100.00
2022-12-06T09:17:29.553Z,100.00
2022-12-06T09:20:05.527Z,100.00
2022-12-06T09:22:35.968Z,100.00
2022-12-06T09:25:07.802Z,100.00
2022-12-06T09:27:37.488Z,100.00
2022-12-06T09:30:09.802Z,100.00
2022-12-06T09:32:39.574Z,100.00
2022-12-06T09:35:15.151Z,100.00
2022-12-06T09:37:45.799Z,100.00
2022-12-06T09:40:25.960Z,100.00
2022-12-06T09:43:07.687Z,100.00
2022-12-06T09:45:53.998Z,100.00
2022-12-06T09:48:49.397Z,100.00
2022-12-06T09:51:30.575Z,100.00
2022-12-06T09:54:12.661Z,100.00
2022-12-06T09:56:47.344Z,100.00
2022-12-06T09:59:25.233Z,100.00
2022-12-06T10:02:11.400Z,100.00
2022-12-06T10:04:54.459Z,100.00
2022-12-06T10:07:29.639Z,100.00
2022-12-06T10:10:10.186Z,100.00
2022-12-06T10:12:52.354Z,100.00
2022-12-06T10:15:30.728Z,100.00
2022-12-06T10:18:25.469Z,100.00
2022-12-06T10:20:59.144Z,100.00
2022-12-06T10:23:42.134Z,100.00
2022-12-06T10:26:17.259Z,100.00
2022-12-06T10:28:49.588Z,100.00
2022-12-06T10:31:25.302Z,100.00
2022-12-06T10:33:57.811Z,100.00
2022-12-06T10:36:44.189Z,100.00
2022-12-06T10:39:19.723Z,100.00
2022-12-06T10:41:53.136Z,100.00
2022-12-06T10:44:30.088Z,100.00
2022-12-06T10:47:07.238Z,100.00
2022-12-06T10:49:50.943Z,100.00
2022-12-06T10:52:34.635Z,100.00
2022-12-06T10:55:18.493Z,100.00
2022-12-06T10:57:53.137Z,98.63
2022-12-06T11:00:26.243Z,100.00
2022-12-06T11:03:01.939Z,98.19
2022-12-06T11:05:36.479Z,100.00
2022-12-06T11:08:11.796Z,100.00
2022-12-06T11:10:45.190Z,100.00
2022-12-06T11:13:21.467Z,100.00
2022-12-06T11:15:59.534Z,100.00
2022-12-06T11:18:31.606Z,100.00
2022-12-06T11:21:03.779Z,100.00
2022-12-06T11:23:39.029Z,100.00
2022-12-06T11:26:23.092Z,100.00
2022-12-06T11:29:04.914Z,100.00
2022-12-06T11:31:39.831Z,100.00
2022-12-06T11:34:17.334Z,100.00
2022-12-06T11:36:48.198Z,100.00
2022-12-06T11:39:19.184Z,100.00
2022-12-06T11:41:52.603Z,100.00
2022-12-06T11:44:25.750Z,100.00
2022-12-06T11:46:59.647Z,100.00
2022-12-06T11:49:33.104Z,100.00
2022-12-06T11:52:08.004Z,100.00
2022-12-06T11:54:43.239Z,100.00
2022-12-06T11:57:23.068Z,100.00
2022-12-06T12:00:11.639Z,100.00
2022-12-06T12:02:44.615Z,100.00
2022-12-06T12:05:22.538Z,100.00
2022-12-06T12:07:55.737Z,100.00
2022-12-06T12:10:35.667Z,100.00
2022-12-06T12:13:40.723Z,99.96
2022-12-06T12:16:21.218Z,100.00
2022-12-06T12:18:56.760Z,100.00
2022-12-06T12:21:39.733Z,100.00
2022-12-06T12:27:50.059Z,100.00
2022-12-06T12:30:42.460Z,100.00
2022-12-06T12:33:20.459Z,100.00
2022-12-06T12:35:59.794Z,100.00
2022-12-06T12:38:34.824Z,100.00
2022-12-06T12:41:12.658Z,100.00
2022-12-06T12:43:46.919Z,100.00
2022-12-06T12:46:19.034Z,100.00
2022-12-06T12:48:50.998Z,100.00
2022-12-06T12:51:31.163Z,100.00
2022-12-06T12:54:07.410Z,99.87
2022-12-06T12:56:38.783Z,98.29
2022-12-06T12:59:15.632Z,100.00
2022-12-06T13:01:50.421Z,100.00
2022-12-06T13:04:30.934Z,100.00
2022-12-06T13:07:04.878Z,100.00
2022-12-06T13:09:41.888Z,98.96
2022-12-06T13:12:17.198Z,99.97
2022-12-06T13:14:53.499Z,100.00
2022-12-06T13:17:28.326Z,98.92
2022-12-06T13:20:00.357Z,100.00
2022-12-06T13:22:34.296Z,100.00
2022-12-06T13:25:06.644Z,100.00
2022-12-06T13:27:39.868Z,100.00
2022-12-06T13:30:15.425Z,100.00
2022-12-06T13:32:47.883Z,100.00
2022-12-06T13:35:25.578Z,100.00
2022-12-06T13:37:58.764Z,100.00
2022-12-06T13:40:49.239Z,98.16
2022-12-06T13:43:51.168Z,100.00
2022-12-06T13:46:27.513Z,100.00
2022-12-06T13:48:59.923Z,97.24
2022-12-06T13:51:49.269Z,98.76
2022-12-06T13:54:35.013Z,100.00
2022-12-06T13:57:26.519Z,100.00
2022-12-06T13:59:56.400Z,100.00
2022-12-06T14:02:47.602Z,100.00
2022-12-06T14:08:23.626Z,100.00
2022-12-06T14:10:55.463Z,100.00
2022-12-06T14:13:24.823Z,100.00
2022-12-06T14:15:54.959Z,100.00
2022-12-06T14:18:27.578Z,100.00
2022-12-06T14:20:58.803Z,100.00
2022-12-06T14:23:31.353Z,100.00
2022-12-06T14:26:17.575Z,98.53
2022-12-06T14:28:48.154Z,100.00
2022-12-06T14:31:28.469Z,100.00
2022-12-06T14:33:58.968Z,100.00
2022-12-06T14:36:31.283Z,100.00
2022-12-06T14:39:03.739Z,100.00
2022-12-06T14:41:54.634Z,99.71
2022-12-06T14:44:31.344Z,97.14
2022-12-06T14:47:01.718Z,100.00
2022-12-06T14:49:49.215Z,100.00
2022-12-06T14:52:25.634Z,100.00
2022-12-06T14:55:15.815Z,100.00
2022-12-06T14:57:52.317Z,100.00
2022-12-06T15:00:27.428Z,100.00
2022-12-06T15:03:26.217Z,99.75
2022-12-06T15:06:16.902Z,100.00
2022-12-06T15:08:51.965Z,100.00
2022-12-06T15:11:51.823Z,97.48
2022-12-06T15:14:24.938Z,98.01
2022-12-06T15:17:01.517Z,100.00
2022-12-06T15:19:33.665Z,99.98
2022-12-06T15:22:04.399Z,98.78
2022-12-06T15:24:34.016Z,99.03
2022-12-06T15:27:03.564Z,100.00
2022-12-06T15:29:34.379Z,100.00
2022-12-06T15:32:04.171Z,100.00
2022-12-06T15:34:36.335Z,100.00
2022-12-06T15:39:56.419Z,99.90
2022-12-06T15:42:26.159Z,100.00
2022-12-06T15:44:57.479Z,98.85
2022-12-06T15:47:27.260Z,97.06
2022-12-06T15:49:58.964Z,100.00
2022-12-06T15:52:29.019Z,97.76
2022-12-06T15:54:59.273Z,99.89
2022-12-06T15:57:29.178Z,96.67
2022-12-06T16:00:00.173Z,95.49
2022-12-06T16:02:30.043Z,97.66
2022-12-06T16:05:00.061Z,97.96
2022-12-06T16:07:30.228Z,98.39
2022-12-06T16:10:00.080Z,99.44
2022-12-06T16:12:51.761Z,97.61
2022-12-06T16:15:23.374Z,98.62
2022-12-06T16:17:54.590Z,99.38
2022-12-06T16:20:33.165Z,98.61
2022-12-06T16:23:21.974Z,100.00
2022-12-06T16:25:51.668Z,96.97
2022-12-06T16:28:21.273Z,99.64
2022-12-06T16:30:52.847Z,96.78
2022-12-06T16:33:25.453Z,96.91
2022-12-06T16:36:02.059Z,95.30
2022-12-06T16:38:31.862Z,95.41
2022-12-06T16:41:09.698Z,96.23
2022-12-06T16:43:39.368Z,99.85
2022-12-06T16:46:25.643Z,96.73
2022-12-06T16:48:59.781Z,95.33
2022-12-06T16:51:37.040Z,94.59
2022-12-06T16:54:07.373Z,97.23
2022-12-06T16:56:41.409Z,96.77
2022-12-06T16:59:15.500Z,93.15
2022-12-06T17:01:52.038Z,94.28
2022-12-06T17:04:21.323Z,95.65
2022-12-06T17:06:51.013Z,95.73
2022-12-06T17:09:20.654Z,97.53
2022-12-06T17:12:07.304Z,97.03
2022-12-06T17:14:39.015Z,98.70
2022-12-06T17:17:14.263Z,99.16
2022-12-06T17:19:44.456Z,100.00
2022-12-06T17:22:18.851Z,100.00
2022-12-06T17:24:48.503Z,100.00
2022-12-06T17:27:19.157Z,100.00
2022-12-06T17:29:48.868Z,100.00
2022-12-06T17:32:20.733Z,100.00
2022-12-06T17:34:50.451Z,100.00
2022-12-06T17:37:20.125Z,99.27
2022-12-06T17:39:50.528Z,98.76
2022-12-06T17:42:37.320Z,99.59
2022-12-06T17:45:08.503Z,100.00
2022-12-06T17:47:39.559Z,100.00
2022-12-06T17:50:11.628Z,100.00
2022-12-06T17:52:42.042Z,96.43
2022-12-06T17:55:13.958Z,97.68
2022-12-06T17:57:43.818Z,96.60
2022-12-06T18:00:15.003Z,99.91
2022-12-06T18:02:46.204Z,95.44
2022-12-06T18:05:15.668Z,98.33
2022-12-06T18:07:45.369Z,100.00
2022-12-06T18:10:15.209Z,100.00
2022-12-06T18:12:45.009Z,100.00
2022-12-06T18:15:28.434Z,99.15
2022-12-06T18:17:59.346Z,100.00
2022-12-06T18:20:28.973Z,98.91
2022-12-06T18:22:58.713Z,100.00
2022-12-06T18:25:28.323Z,100.00
2022-12-06T18:27:58.094Z,96.58
2022-12-06T18:30:28.003Z,100.00
2022-12-06T18:33:02.564Z,100.00
2022-12-06T18:35:32.496Z,100.00
2022-12-06T18:38:02.510Z,100.00
2022-12-06T18:40:34.373Z,100.00
2022-12-06T18:43:04.030Z,100.00
2022-12-06T18:45:33.703Z,100.00
2022-12-06T18:48:06.042Z,100.00
2022-12-06T18:50:35.864Z,100.00
2022-12-06T18:53:05.599Z,100.00
2022-12-06T18:55:35.634Z,100.00
2022-12-06T18:58:04.943Z,100.00
2022-12-06T19:00:34.903Z,100.00
2022-12-06T19:03:06.013Z,100.00
2022-12-06T19:06:01.262Z,100.00
2022-12-06T19:08:26.673Z,100.00
2022-12-06T19:10:56.292Z,99.98
2022-12-06T19:13:29.768Z,100.00
2022-12-06T19:16:03.276Z,100.00
2022-12-06T19:18:35.578Z,99.67
2022-12-06T19:21:05.634Z,100.00
2022-12-06T19:23:35.873Z,100.00
2022-12-06T19:26:06.994Z,98.52
2022-12-06T19:28:38.604Z,99.60
2022-12-06T19:31:11.726Z,98.55
2022-12-06T19:33:44.775Z,99.14
2022-12-06T19:36:16.499Z,100.00
2022-12-06T19:38:46.654Z,99.28
2022-12-06T19:41:20.530Z,100.00
2022-12-06T19:44:07.719Z,95.64
2022-12-06T19:46:37.774Z,100.00
2022-12-06T19:49:08.933Z,99.69
2022-12-06T19:51:39.159Z,99.48
2022-12-06T19:54:10.521Z,100.00
2022-12-06T19:56:40.799Z,100.00
2022-12-06T19:59:12.776Z,100.00
2022-12-06T20:01:44.041Z,100.00
2022-12-06T20:04:19.552Z,100.00
2022-12-06T20:06:49.548Z,100.00
2022-12-06T20:09:20.494Z,99.16
2022-12-06T20:12:05.629Z,100.00
2022-12-06T20:14:38.629Z,98.95
2022-12-06T20:17:10.210Z,96.69
2022-12-06T20:19:43.844Z,94.26
2022-12-06T20:22:13.667Z,99.92
2022-12-06T20:24:43.703Z,100.00
2022-12-06T20:27:14.042Z,100.00
2022-12-06T20:29:43.880Z,100.00
2022-12-06T20:32:14.364Z,100.00
2022-12-06T20:34:45.084Z,98.15
2022-12-06T20:37:14.964Z,97.13
2022-12-06T20:39:44.499Z,97.02
2022-12-06T20:42:13.854Z,100.00
2022-12-06T20:44:43.984Z,98.17
2022-12-06T20:47:13.280Z,99.24
2022-12-06T20:49:44.825Z,98.67
2022-12-06T20:52:14.640Z,97.37
2022-12-06T20:54:44.523Z,96.84
2022-12-06T20:57:14.278Z,100.00
2022-12-06T20:59:43.795Z,97.90
2022-12-06T21:02:14.524Z,98.17
2022-12-06T21:04:47.099Z,100.00
2022-12-06T21:07:16.991Z,97.46
2022-12-06T21:09:47.469Z,98.46
2022-12-06T21:12:17.238Z,100.00
2022-12-06T21:14:47.248Z,97.82
2022-12-06T21:17:16.975Z,99.45
2022-12-06T21:19:48.213Z,97.49
2022-12-06T21:22:17.914Z,97.71
2022-12-06T21:24:47.650Z,97.08
2022-12-06T21:27:17.788Z,98.77
2022-12-06T21:29:48.754Z,96.83
2022-12-06T21:32:18.798Z,95.99
2022-12-06T21:34:50.073Z,99.10
2022-12-06T21:37:19.975Z,97.54
2022-12-06T21:39:49.554Z,96.65
2022-12-06T21:42:21.348Z,94.32
2022-12-06T21:44:52.442Z,94.95
2022-12-06T21:47:22.248Z,93.95
2022-12-06T21:49:56.029Z,96.07
2022-12-06T21:52:26.425Z,95.10
2022-12-06T21:54:56.994Z,95.95
2022-12-06T21:57:26.809Z,94.45
2022-12-06T21:59:56.694Z,94.80
2022-12-06T22:02:26.095Z,93.74
2022-12-06T22:04:57.553Z,95.51
2022-12-06T22:07:27.903Z,98.07
2022-12-06T22:09:57.850Z,97.53
2022-12-06T22:12:28.285Z,98.21
2022-12-06T22:14:57.858Z,100.00
2022-12-06T22:17:27.604Z,97.95
2022-12-06T22:19:59.283Z,100.00
2022-12-06T22:22:29.170Z,100.00
2022-12-06T22:24:59.440Z,100.00
2022-12-06T22:27:29.549Z,100.00
2022-12-06T22:29:59.513Z,97.33
2022-12-06T22:32:29.505Z,98.94
2022-12-06T22:35:00.866Z,99.81
2022-12-06T22:37:30.708Z,98.00
2022-12-06T22:40:00.787Z,97.95
2022-12-06T22:42:33.287Z,96.81
2022-12-06T22:45:02.933Z,98.17
2022-12-06T22:47:32.540Z,95.65
2022-12-06T22:50:03.784Z,97.98
2022-12-06T22:52:33.879Z,100.00
2022-12-06T22:55:03.599Z,100.00
2022-12-06T22:57:33.209Z,100.00
2022-12-06T23:00:04.057Z,96.50
2022-12-06T23:02:36.674Z,98.15
2022-12-06T23:05:09.718Z,95.34
2022-12-06T23:07:38.980Z,95.18
2022-12-06T23:10:09.654Z,97.07
2022-12-06T23:12:39.338Z,94.93
2022-12-06T23:15:10.282Z,97.26
2022-12-06T23:17:40.799Z,95.57
2022-12-06T23:20:14.338Z,100.00
2022-12-06T23:22:43.943Z,100.00
2022-12-06T23:25:13.691Z,100.00
2022-12-06T23:27:43.094Z,98.97
2022-12-06T23:30:13.673Z,97.27
2022-12-06T23:32:46.761Z,95.05
2022-12-06T23:35:18.393Z,96.75
2022-12-06T23:37:47.959Z,94.75
2022-12-06T23:40:20.039Z,91.09
2022-12-06T23:42:52.099Z,99.51
2022-12-06T23:45:22.874Z,95.54
2022-12-06T23:47:52.769Z,93.16
2022-12-06T23:50:25.164Z,99.50
2022-12-06T23:52:55.112Z,98.60
2022-12-06T23:55:24.639Z,97.33
2022-12-06T23:57:54.184Z,99.03
